sensor_id;sensor_type;location;lat;lon;timestamp;pressure;altitude;pressure_sealevel;temperature;humidity
33414;BME280;60055;41.884;12.534;2023-05-11T00:00:02;100452.63;;;18.86;65.70
33414;BME280;60055;41.884;12.534;2023-05-11T00:02:28;100449.06;;;18.86;65.96
33414;BME280;60055;41.884;12.534;2023-05-11T00:04:54;100442.28;;;18.82;66.11
33414;BME280;60055;41.884;12.534;2023-05-11T00:07:19;100441.75;;;18.77;66.71
33414;BME280;60055;41.884;12.534;2023-05-11T00:09:45;100438.97;;;18.78;66.89
33414;BME280;60055;41.884;12.534;2023-05-11T00:12:11;100440.56;;;18.81;66.87
33414;BME280;60055;41.884;12.534;2023-05-11T00:14:37;100433.72;;;18.77;66.84
33414;BME280;60055;41.884;12.534;2023-05-11T00:17:03;100436.72;;;18.72;67.50
33414;BME280;60055;41.884;12.534;2023-05-11T00:19:28;100432.25;;;18.73;67.21
33414;BME280;60055;41.884;12.534;2023-05-11T00:21:56;100439.06;;;18.77;66.94
33414;BME280;60055;41.884;12.534;2023-05-11T00:24:23;100436.28;;;18.78;66.91
33414;BME280;60055;41.884;12.534;2023-05-11T00:26:48;100434.66;;;18.65;67.89
33414;BME280;60055;41.884;12.534;2023-05-11T00:29:14;100440.00;;;18.65;67.91
33414;BME280;60055;41.884;12.534;2023-05-11T00:31:39;100445.56;;;18.62;68.28
33414;BME280;60055;41.884;12.534;2023-05-11T00:34:05;100440.50;;;18.70;67.92
33414;BME280;60055;41.884;12.534;2023-05-11T00:36:30;100440.84;;;18.65;67.71
33414;BME280;60055;41.884;12.534;2023-05-11T00:38:57;100438.03;;;18.67;68.08
33414;BME280;60055;41.884;12.534;2023-05-11T00:41:22;100443.53;;;18.65;68.34
33414;BME280;60055;41.884;12.534;2023-05-11T00:43:48;100439.13;;;18.64;68.29
33414;BME280;60055;41.884;12.534;2023-05-11T00:46:13;100430.19;;;18.53;68.65
33414;BME280;60055;41.884;12.534;2023-05-11T00:48:39;100434.97;;;18.60;68.61
33414;BME280;60055;41.884;12.534;2023-05-11T00:51:05;100436.28;;;18.55;69.13
33414;BME280;60055;41.884;12.534;2023-05-11T00:53:31;100428.03;;;18.58;69.26
33414;BME280;60055;41.884;12.534;2023-05-11T00:55:57;100431.66;;;18.57;69.14
33414;BME280;60055;41.884;12.534;2023-05-11T00:58:23;100435.31;;;18.56;69.25
33414;BME280;60055;41.884;12.534;2023-05-11T01:00:49;100433.63;;;18.55;69.08
33414;BME280;60055;41.884;12.534;2023-05-11T01:03:15;100426.84;;;18.49;69.81
33414;BME280;60055;41.884;12.534;2023-05-11T01:08:47;100429.31;;;18.52;69.04
33414;BME280;60055;41.884;12.534;2023-05-11T01:13:49;100432.00;;;18.52;69.17
33414;BME280;60055;41.884;12.534;2023-05-11T01:16:20;100426.22;;;18.46;69.66
33414;BME280;60055;41.884;12.534;2023-05-11T01:21:16;100429.97;;;18.43;69.48
33414;BME280;60055;41.884;12.534;2023-05-11T01:26:48;100429.34;;;18.39;69.97
33414;BME280;60055;41.884;12.534;2023-05-11T01:32:18;100434.81;;;18.38;70.03
33414;BME280;60055;41.884;12.534;2023-05-11T01:34:46;100435.66;;;18.38;69.79
33414;BME280;60055;41.884;12.534;2023-05-11T01:37:18;100435.53;;;18.40;69.98
33414;BME280;60055;41.884;12.534;2023-05-11T01:39:53;100438.44;;;18.37;70.10
33414;BME280;60055;41.884;12.534;2023-05-11T01:42:25;100441.75;;;18.41;69.66
33414;BME280;60055;41.884;12.534;2023-05-11T01:44:53;100436.41;;;18.41;69.66
33414;BME280;60055;41.884;12.534;2023-05-11T01:47:22;100433.34;;;18.34;70.07
33414;BME280;60055;41.884;12.534;2023-05-11T01:49:50;100437.81;;;18.33;69.62
33414;BME280;60055;41.884;12.534;2023-05-11T01:52:17;100432.56;;;18.32;69.75
33414;BME280;60055;41.884;12.534;2023-05-11T01:54:45;100439.53;;;18.34;69.90
33414;BME280;60055;41.884;12.534;2023-05-11T01:57:14;100431.94;;;18.28;69.60
33414;BME280;60055;41.884;12.534;2023-05-11T01:59:41;100429.69;;;18.35;69.66
33414;BME280;60055;41.884;12.534;2023-05-11T02:02:07;100424.53;;;18.32;69.68
33414;BME280;60055;41.884;12.534;2023-05-11T02:04:34;100428.06;;;18.32;69.55
33414;BME280;60055;41.884;12.534;2023-05-11T02:07:01;100429.56;;;18.36;69.44
33414;BME280;60055;41.884;12.534;2023-05-11T02:09:29;100436.63;;;18.37;69.33
33414;BME280;60055;41.884;12.534;2023-05-11T02:11:57;100435.78;;;18.37;69.63
33414;BME280;60055;41.884;12.534;2023-05-11T02:14:24;100424.22;;;18.36;69.85
33414;BME280;60055;41.884;12.534;2023-05-11T02:16:54;100416.53;;;18.32;69.49
33414;BME280;60055;41.884;12.534;2023-05-11T02:19:20;100427.22;;;18.32;69.99
33414;BME280;60055;41.884;12.534;2023-05-11T02:21:47;100419.97;;;18.34;69.49
33414;BME280;60055;41.884;12.534;2023-05-11T02:24:14;100423.41;;;18.23;69.85
33414;BME280;60055;41.884;12.534;2023-05-11T02:26:41;100432.78;;;18.29;69.77
33414;BME280;60055;41.884;12.534;2023-05-11T02:29:06;100423.41;;;18.23;70.33
33414;BME280;60055;41.884;12.534;2023-05-11T02:31:35;100422.28;;;18.15;69.89
33414;BME280;60055;41.884;12.534;2023-05-11T02:34:16;100420.56;;;18.14;70.05
33414;BME280;60055;41.884;12.534;2023-05-11T02:36:47;100422.47;;;18.12;70.27
33414;BME280;60055;41.884;12.534;2023-05-11T02:39:14;100420.88;;;18.09;70.38
33414;BME280;60055;41.884;12.534;2023-05-11T02:41:43;100415.94;;;18.16;70.24
33414;BME280;60055;41.884;12.534;2023-05-11T02:44:13;100412.94;;;18.20;69.55
33414;BME280;60055;41.884;12.534;2023-05-11T02:46:40;100414.66;;;18.09;69.94
33414;BME280;60055;41.884;12.534;2023-05-11T02:49:08;100415.84;;;18.17;69.43
33414;BME280;60055;41.884;12.534;2023-05-11T02:51:38;100409.72;;;18.15;69.89
33414;BME280;60055;41.884;12.534;2023-05-11T02:54:06;100417.16;;;17.99;70.16
33414;BME280;60055;41.884;12.534;2023-05-11T02:56:35;100422.19;;;18.04;69.98
33414;BME280;60055;41.884;12.534;2023-05-11T02:59:01;100418.19;;;18.09;69.75
33414;BME280;60055;41.884;12.534;2023-05-11T03:01:27;100422.19;;;18.04;69.57
33414;BME280;60055;41.884;12.534;2023-05-11T03:03:53;100413.53;;;18.00;69.75
33414;BME280;60055;41.884;12.534;2023-05-11T03:06:18;100410.22;;;17.97;69.39
33414;BME280;60055;41.884;12.534;2023-05-11T03:08:44;100411.41;;;17.93;69.99
33414;BME280;60055;41.884;12.534;2023-05-11T03:11:10;100415.44;;;17.98;69.47
33414;BME280;60055;41.884;12.534;2023-05-11T03:13:39;100413.13;;;17.94;69.68
33414;BME280;60055;41.884;12.534;2023-05-11T03:16:06;100420.03;;;17.96;69.69
33414;BME280;60055;41.884;12.534;2023-05-11T03:18:32;100416.28;;;17.99;69.60
33414;BME280;60055;41.884;12.534;2023-05-11T03:20:59;100414.59;;;17.98;69.65
33414;BME280;60055;41.884;12.534;2023-05-11T03:23:25;100421.84;;;17.96;69.49
33414;BME280;60055;41.884;12.534;2023-05-11T03:25:51;100427.56;;;17.91;69.86
33414;BME280;60055;41.884;12.534;2023-05-11T03:28:18;100427.31;;;17.94;69.44
33414;BME280;60055;41.884;12.534;2023-05-11T03:30:47;100422.06;;;17.93;69.26
33414;BME280;60055;41.884;12.534;2023-05-11T03:33:13;100419.22;;;17.83;69.82
33414;BME280;60055;41.884;12.534;2023-05-11T03:35:40;100421.66;;;17.86;69.30
33414;BME280;60055;41.884;12.534;2023-05-11T03:38:08;100425.19;;;17.86;69.05
33414;BME280;60055;41.884;12.534;2023-05-11T03:40:36;100426.69;;;17.78;69.15
33414;BME280;60055;41.884;12.534;2023-05-11T03:43:04;100418.88;;;17.75;69.47
33414;BME280;60055;41.884;12.534;2023-05-11T03:45:31;100419.09;;;17.72;69.45
33414;BME280;60055;41.884;12.534;2023-05-11T03:47:58;100423.81;;;17.68;69.94
33414;BME280;60055;41.884;12.534;2023-05-11T03:50:25;100429.56;;;17.75;69.54
33414;BME280;60055;41.884;12.534;2023-05-11T03:52:51;100427.97;;;17.72;70.08
33414;BME280;60055;41.884;12.534;2023-05-11T03:55:17;100433.66;;;17.80;69.65
33414;BME280;60055;41.884;12.534;2023-05-11T03:57:43;100430.34;;;17.77;69.84
33414;BME280;60055;41.884;12.534;2023-05-11T04:00:09;100436.09;;;17.83;69.57
33414;BME280;60055;41.884;12.534;2023-05-11T04:02:35;100441.97;;;17.76;69.88
33414;BME280;60055;41.884;12.534;2023-05-11T04:05:11;100445.06;;;17.82;69.33
33414;BME280;60055;41.884;12.534;2023-05-11T04:07:37;100458.53;;;17.81;69.47
33414;BME280;60055;41.884;12.534;2023-05-11T04:10:04;100448.59;;;17.83;69.45
33414;BME280;60055;41.884;12.534;2023-05-11T04:12:30;100447.41;;;17.87;69.24
33414;BME280;60055;41.884;12.534;2023-05-11T04:14:56;100449.31;;;17.85;69.91
33414;BME280;60055;41.884;12.534;2023-05-11T04:17:21;100447.63;;;17.84;69.44
33414;BME280;60055;41.884;12.534;2023-05-11T04:19:47;100462.38;;;17.77;70.05
33414;BME280;60055;41.884;12.534;2023-05-11T04:22:12;100459.59;;;17.78;70.31
33414;BME280;60055;41.884;12.534;2023-05-11T04:24:38;100464.06;;;17.78;70.05
33414;BME280;60055;41.884;12.534;2023-05-11T04:27:03;100474.22;;;17.85;69.64
33414;BME280;60055;41.884;12.534;2023-05-11T04:29:29;100477.63;;;17.75;70.44
33414;BME280;60055;41.884;12.534;2023-05-11T04:31:54;100478.59;;;17.61;70.96
33414;BME280;60055;41.884;12.534;2023-05-11T04:34:20;100474.81;;;17.51;71.53
33414;BME280;60055;41.884;12.534;2023-05-11T04:36:49;100482.47;;;17.30;72.32
33414;BME280;60055;41.884;12.534;2023-05-11T04:39:15;100481.00;;;17.52;71.69
33414;BME280;60055;41.884;12.534;2023-05-11T04:41:44;100475.28;;;17.58;72.13
33414;BME280;60055;41.884;12.534;2023-05-11T04:44:10;100478.84;;;17.71;71.22
33414;BME280;60055;41.884;12.534;2023-05-11T04:46:36;100477.44;;;17.78;71.63
33414;BME280;60055;41.884;12.534;2023-05-11T04:49:04;100482.44;;;17.95;70.54
33414;BME280;60055;41.884;12.534;2023-05-11T04:51:30;100486.59;;;18.24;70.23
33414;BME280;60055;41.884;12.534;2023-05-11T04:53:56;100492.00;;;18.61;68.84
33414;BME280;60055;41.884;12.534;2023-05-11T04:56:21;100485.75;;;18.97;68.03
33414;BME280;60055;41.884;12.534;2023-05-11T04:58:47;100490.19;;;19.32;66.52
33414;BME280;60055;41.884;12.534;2023-05-11T05:01:12;100492.94;;;19.55;65.58
33414;BME280;60055;41.884;12.534;2023-05-11T05:03:37;100486.38;;;19.59;64.22
33414;BME280;60055;41.884;12.534;2023-05-11T05:06:03;100484.25;;;19.86;63.78
33414;BME280;60055;41.884;12.534;2023-05-11T05:08:28;100489.88;;;20.16;63.07
33414;BME280;60055;41.884;12.534;2023-05-11T05:10:54;100493.78;;;20.46;62.51
33414;BME280;60055;41.884;12.534;2023-05-11T05:13:19;100499.97;;;20.68;61.92
33414;BME280;60055;41.884;12.534;2023-05-11T05:15:45;100504.50;;;20.68;60.93
33414;BME280;60055;41.884;12.534;2023-05-11T05:18:10;100503.66;;;20.99;59.60
33414;BME280;60055;41.884;12.534;2023-05-11T05:20:35;100493.91;;;20.33;61.29
33414;BME280;60055;41.884;12.534;2023-05-11T05:23:01;100501.63;;;20.92;60.01
33414;BME280;60055;41.884;12.534;2023-05-11T05:25:27;100501.09;;;20.32;60.72
33414;BME280;60055;41.884;12.534;2023-05-11T05:27:52;100506.16;;;20.80;59.86
33414;BME280;60055;41.884;12.534;2023-05-11T05:30:18;100511.28;;;20.83;59.72
33414;BME280;60055;41.884;12.534;2023-05-11T05:32:43;100524.38;;;21.19;58.71
33414;BME280;60055;41.884;12.534;2023-05-11T05:35:09;100522.22;;;21.66;56.97
33414;BME280;60055;41.884;12.534;2023-05-11T05:37:34;100523.59;;;22.02;56.64
33414;BME280;60055;41.884;12.534;2023-05-11T05:40:02;100525.16;;;22.04;55.70
33414;BME280;60055;41.884;12.534;2023-05-11T05:42:27;100520.34;;;21.98;55.70
33414;BME280;60055;41.884;12.534;2023-05-11T05:44:53;100526.66;;;22.18;55.17
33414;BME280;60055;41.884;12.534;2023-05-11T05:47:18;100523.22;;;22.06;54.35
33414;BME280;60055;41.884;12.534;2023-05-11T05:49:43;100521.81;;;22.42;53.92
33414;BME280;60055;41.884;12.534;2023-05-11T05:52:09;100524.56;;;22.61;53.70
33414;BME280;60055;41.884;12.534;2023-05-11T05:54:34;100512.91;;;22.41;53.55
33414;BME280;60055;41.884;12.534;2023-05-11T05:57:00;100517.19;;;21.72;52.71
33414;BME280;60055;41.884;12.534;2023-05-11T05:59:25;100517.50;;;22.60;52.14
33414;BME280;60055;41.884;12.534;2023-05-11T06:01:51;100519.88;;;22.94;51.28
33414;BME280;60055;41.884;12.534;2023-05-11T06:04:16;100525.84;;;23.07;50.70
33414;BME280;60055;41.884;12.534;2023-05-11T06:06:42;100533.78;;;22.99;49.78
33414;BME280;60055;41.884;12.534;2023-05-11T06:09:07;100532.41;;;21.83;52.56
33414;BME280;60055;41.884;12.534;2023-05-11T06:11:33;100532.19;;;21.75;52.43
33414;BME280;60055;41.884;12.534;2023-05-11T06:13:58;100536.03;;;21.93;52.71
33414;BME280;60055;41.884;12.534;2023-05-11T06:16:24;100546.72;;;22.14;52.01
33414;BME280;60055;41.884;12.534;2023-05-11T06:18:51;100536.50;;;21.87;51.08
33414;BME280;60055;41.884;12.534;2023-05-11T06:21:16;100529.84;;;22.02;52.64
33414;BME280;60055;41.884;12.534;2023-05-11T06:23:41;100527.13;;;22.53;50.81
33414;BME280;60055;41.884;12.534;2023-05-11T06:26:07;100524.25;;;22.45;50.07
33414;BME280;60055;41.884;12.534;2023-05-11T06:28:32;100533.72;;;21.57;51.69
33414;BME280;60055;41.884;12.534;2023-05-11T06:30:58;100537.59;;;21.00;53.47
33414;BME280;60055;41.884;12.534;2023-05-11T06:33:24;100538.81;;;22.12;51.41
33414;BME280;60055;41.884;12.534;2023-05-11T06:35:49;100538.28;;;22.49;50.30
33414;BME280;60055;41.884;12.534;2023-05-11T06:38:15;100538.25;;;22.79;49.49
33414;BME280;60055;41.884;12.534;2023-05-11T06:40:40;100539.91;;;22.30;50.16
33414;BME280;60055;41.884;12.534;2023-05-11T06:43:05;100543.94;;;22.76;49.87
33414;BME280;60055;41.884;12.534;2023-05-11T06:45:31;100540.25;;;22.77;49.64
33414;BME280;60055;41.884;12.534;2023-05-11T06:47:56;100534.44;;;22.81;48.76
33414;BME280;60055;41.884;12.534;2023-05-11T06:50:22;100529.94;;;22.61;48.94
33414;BME280;60055;41.884;12.534;2023-05-11T06:52:47;100532.53;;;22.63;49.46
33414;BME280;60055;41.884;12.534;2023-05-11T06:55:12;100531.94;;;22.99;49.01
33414;BME280;60055;41.884;12.534;2023-05-11T06:57:38;100536.22;;;23.21;48.14
33414;BME280;60055;41.884;12.534;2023-05-11T07:00:04;100536.22;;;22.31;49.07
33414;BME280;60055;41.884;12.534;2023-05-11T07:02:30;100538.94;;;21.90;50.83
33414;BME280;60055;41.884;12.534;2023-05-11T07:04:56;100538.69;;;22.44;49.97
33414;BME280;60055;41.884;12.534;2023-05-11T07:07:22;100543.94;;;22.46;50.26
33414;BME280;60055;41.884;12.534;2023-05-11T07:09:48;100537.59;;;22.56;49.88
33414;BME280;60055;41.884;12.534;2023-05-11T07:12:13;100547.69;;;23.13;48.43
33414;BME280;60055;41.884;12.534;2023-05-11T07:14:39;100543.75;;;23.56;47.33
33414;BME280;60055;41.884;12.534;2023-05-11T07:17:04;100548.59;;;23.81;46.75
33414;BME280;60055;41.884;12.534;2023-05-11T07:19:30;100548.38;;;24.11;45.47
33414;BME280;60055;41.884;12.534;2023-05-11T07:21:55;100552.31;;;23.51;46.65
33414;BME280;60055;41.884;12.534;2023-05-11T07:24:20;100556.13;;;23.49;47.16
33414;BME280;60055;41.884;12.534;2023-05-11T07:26:46;100553.66;;;23.26;47.53
33414;BME280;60055;41.884;12.534;2023-05-11T07:29:13;100551.53;;;23.20;46.99
33414;BME280;60055;41.884;12.534;2023-05-11T07:31:38;100551.44;;;23.41;46.89
33414;BME280;60055;41.884;12.534;2023-05-11T07:34:03;100553.09;;;23.90;46.52
33414;BME280;60055;41.884;12.534;2023-05-11T07:36:29;100545.28;;;24.53;44.88
33414;BME280;60055;41.884;12.534;2023-05-11T07:38:54;100554.56;;;25.05;43.71
33414;BME280;60055;41.884;12.534;2023-05-11T07:41:22;100554.81;;;25.47;42.38
33414;BME280;60055;41.884;12.534;2023-05-11T07:43:51;100551.75;;;25.77;41.35
33414;BME280;60055;41.884;12.534;2023-05-11T07:46:16;100552.50;;;26.13;40.98
33414;BME280;60055;41.884;12.534;2023-05-11T07:48:41;100544.69;;;25.13;41.55
33414;BME280;60055;41.884;12.534;2023-05-11T07:51:07;100548.88;;;25.08;41.91
33414;BME280;60055;41.884;12.534;2023-05-11T07:53:33;100548.88;;;25.25;41.30
33414;BME280;60055;41.884;12.534;2023-05-11T07:55:58;100549.84;;;24.79;42.23
33414;BME280;60055;41.884;12.534;2023-05-11T07:58:25;100555.69;;;23.82;43.91
33414;BME280;60055;41.884;12.534;2023-05-11T08:00:50;100548.31;;;23.65;44.12
33414;BME280;60055;41.884;12.534;2023-05-11T08:03:16;100544.28;;;23.98;43.72
33414;BME280;60055;41.884;12.534;2023-05-11T08:05:41;100549.94;;;24.23;43.21
33414;BME280;60055;41.884;12.534;2023-05-11T08:08:06;100549.66;;;24.17;42.97
33414;BME280;60055;41.884;12.534;2023-05-11T08:10:32;100554.44;;;24.42;42.09
33414;BME280;60055;41.884;12.534;2023-05-11T08:12:58;100549.88;;;24.42;41.92
33414;BME280;60055;41.884;12.534;2023-05-11T08:15:23;100550.81;;;24.05;42.19
33414;BME280;60055;41.884;12.534;2023-05-11T08:17:49;100548.72;;;23.89;41.81
33414;BME280;60055;41.884;12.534;2023-05-11T08:20:14;100547.75;;;23.61;41.94
33414;BME280;60055;41.884;12.534;2023-05-11T08:22:40;100544.19;;;24.46;40.67
33414;BME280;60055;41.884;12.534;2023-05-11T08:25:06;100541.72;;;24.89;39.78
33414;BME280;60055;41.884;12.534;2023-05-11T08:27:31;100541.44;;;25.45;38.76
33414;BME280;60055;41.884;12.534;2023-05-11T08:29:57;100540.41;;;25.56;38.47
33414;BME280;60055;41.884;12.534;2023-05-11T08:32:22;100542.88;;;25.92;37.85
33414;BME280;60055;41.884;12.534;2023-05-11T08:34:48;100534.50;;;25.96;36.83
33414;BME280;60055;41.884;12.534;2023-05-11T08:37:13;100538.72;;;25.98;37.21
33414;BME280;60055;41.884;12.534;2023-05-11T08:39:39;100543.09;;;26.17;36.53
33414;BME280;60055;41.884;12.534;2023-05-11T08:42:05;100542.94;;;26.18;37.92
33414;BME280;60055;41.884;12.534;2023-05-11T08:44:32;100545.16;;;26.23;38.73
33414;BME280;60055;41.884;12.534;2023-05-11T08:46:58;100546.41;;;25.50;40.32
33414;BME280;60055;41.884;12.534;2023-05-11T08:49:24;100547.19;;;25.77;39.84
33414;BME280;60055;41.884;12.534;2023-05-11T08:51:50;100549.13;;;26.11;39.40
33414;BME280;60055;41.884;12.534;2023-05-11T08:54:15;100549.06;;;26.03;40.16
33414;BME280;60055;41.884;12.534;2023-05-11T08:56:42;100548.53;;;25.99;40.61
33414;BME280;60055;41.884;12.534;2023-05-11T08:59:08;100556.09;;;25.52;41.67
33414;BME280;60055;41.884;12.534;2023-05-11T09:01:34;100547.66;;;25.55;41.85
33414;BME280;60055;41.884;12.534;2023-05-11T09:04:02;100541.25;;;25.21;43.05
33414;BME280;60055;41.884;12.534;2023-05-11T09:06:28;100550.03;;;25.40;40.99
33414;BME280;60055;41.884;12.534;2023-05-11T09:08:54;100546.13;;;25.70;39.55
33414;BME280;60055;41.884;12.534;2023-05-11T09:11:21;100544.56;;;25.85;39.61
33414;BME280;60055;41.884;12.534;2023-05-11T09:13:47;100543.50;;;25.78;39.60
33414;BME280;60055;41.884;12.534;2023-05-11T09:16:12;100546.41;;;25.32;41.01
33414;BME280;60055;41.884;12.534;2023-05-11T09:18:51;100543.41;;;25.70;41.11
33414;BME280;60055;41.884;12.534;2023-05-11T09:21:17;100547.09;;;25.69;40.77
33414;BME280;60055;41.884;12.534;2023-05-11T09:23:43;100544.94;;;25.55;40.43
33414;BME280;60055;41.884;12.534;2023-05-11T09:26:35;100545.25;;;25.52;40.86
33414;BME280;60055;41.884;12.534;2023-05-11T09:29:00;100542.00;;;25.31;41.67
33414;BME280;60055;41.884;12.534;2023-05-11T09:34:19;100538.13;;;25.16;40.57
33414;BME280;60055;41.884;12.534;2023-05-11T09:36:47;100530.00;;;24.98;41.30
33414;BME280;60055;41.884;12.534;2023-05-11T09:39:13;100530.66;;;24.82;41.22
33414;BME280;60055;41.884;12.534;2023-05-11T09:41:39;100524.53;;;24.26;41.59
33414;BME280;60055;41.884;12.534;2023-05-11T09:44:09;100531.91;;;24.24;42.31
33414;BME280;60055;41.884;12.534;2023-05-11T09:46:43;100533.13;;;23.64;43.57
33414;BME280;60055;41.884;12.534;2023-05-11T09:49:09;100535.63;;;23.94;43.99
33414;BME280;60055;41.884;12.534;2023-05-11T09:51:37;100531.25;;;24.12;43.91
33414;BME280;60055;41.884;12.534;2023-05-11T09:54:24;100532.31;;;24.29;42.24
33414;BME280;60055;41.884;12.534;2023-05-11T09:56:52;100530.72;;;23.61;43.28
33414;BME280;60055;41.884;12.534;2023-05-11T09:59:41;100541.06;;;23.75;43.86
33414;BME280;60055;41.884;12.534;2023-05-11T10:02:26;100545.19;;;23.69;45.62
33414;BME280;60055;41.884;12.534;2023-05-11T10:04:54;100537.75;;;24.00;45.36
33414;BME280;60055;41.884;12.534;2023-05-11T10:09:53;100545.16;;;23.88;46.30
33414;BME280;60055;41.884;12.534;2023-05-11T10:12:21;100539.50;;;23.82;47.06
33414;BME280;60055;41.884;12.534;2023-05-11T10:14:50;100529.72;;;23.71;46.84
33414;BME280;60055;41.884;12.534;2023-05-11T10:17:16;100536.38;;;23.96;46.59
33414;BME280;60055;41.884;12.534;2023-05-11T10:19:42;100534.34;;;23.98;47.02
33414;BME280;60055;41.884;12.534;2023-05-11T10:22:08;100535.38;;;23.39;48.59
33414;BME280;60055;41.884;12.534;2023-05-11T10:24:35;100544.91;;;22.75;49.97
33414;BME280;60055;41.884;12.534;2023-05-11T10:27:01;100530.75;;;22.82;50.09
33414;BME280;60055;41.884;12.534;2023-05-11T10:29:28;100536.16;;;22.82;50.47
33414;BME280;60055;41.884;12.534;2023-05-11T10:31:56;100538.06;;;23.11;49.58
33414;BME280;60055;41.884;12.534;2023-05-11T10:34:23;100534.81;;;23.26;48.69
33414;BME280;60055;41.884;12.534;2023-05-11T10:36:51;100530.28;;;23.46;47.98
33414;BME280;60055;41.884;12.534;2023-05-11T10:39:16;100528.06;;;23.42;48.11
33414;BME280;60055;41.884;12.534;2023-05-11T10:50:24;100546.38;;;22.88;49.51
33414;BME280;60055;41.884;12.534;2023-05-11T10:55:49;100534.38;;;23.21;48.49
33414;BME280;60055;41.884;12.534;2023-05-11T10:58:56;100528.84;;;23.13;48.86
33414;BME280;60055;41.884;12.534;2023-05-11T11:01:36;100539.72;;;22.92;49.21
33414;BME280;60055;41.884;12.534;2023-05-11T11:04:08;100538.19;;;23.09;48.86
33414;BME280;60055;41.884;12.534;2023-05-11T11:06:35;100535.50;;;23.09;50.32
33414;BME280;60055;41.884;12.534;2023-05-11T11:09:20;100538.19;;;23.09;48.89
33414;BME280;60055;41.884;12.534;2023-05-11T11:11:46;100538.84;;;22.92;49.75
33414;BME280;60055;41.884;12.534;2023-05-11T11:14:15;100526.38;;;22.81;49.92
33414;BME280;60055;41.884;12.534;2023-05-11T11:19:45;100521.53;;;22.75;49.80
33414;BME280;60055;41.884;12.534;2023-05-11T11:24:57;100523.41;;;22.84;51.28
33414;BME280;60055;41.884;12.534;2023-05-11T11:30:18;100522.53;;;22.74;49.81
33414;BME280;60055;41.884;12.534;2023-05-11T11:32:45;100516.91;;;22.87;49.41
33414;BME280;60055;41.884;12.534;2023-05-11T11:38:17;100516.34;;;22.93;49.73
33414;BME280;60055;41.884;12.534;2023-05-11T11:40:45;100516.44;;;22.82;49.57
33414;BME280;60055;41.884;12.534;2023-05-11T11:43:13;100505.00;;;23.09;48.98
33414;BME280;60055;41.884;12.534;2023-05-11T11:46:00;100512.97;;;23.01;47.95
33414;BME280;60055;41.884;12.534;2023-05-11T11:48:34;100503.44;;;23.06;48.75
33414;BME280;60055;41.884;12.534;2023-05-11T11:51:02;100510.34;;;22.80;49.01
33414;BME280;60055;41.884;12.534;2023-05-11T11:56:06;100508.94;;;22.85;48.50
33414;BME280;60055;41.884;12.534;2023-05-11T12:01:13;100509.69;;;22.87;49.50
33414;BME280;60055;41.884;12.534;2023-05-11T12:03:40;100514.81;;;23.10;48.16
33414;BME280;60055;41.884;12.534;2023-05-11T12:06:07;100504.19;;;23.08;48.05
33414;BME280;60055;41.884;12.534;2023-05-11T12:08:34;100511.41;;;23.36;47.65
33414;BME280;60055;41.884;12.534;2023-05-11T12:11:01;100508.13;;;22.95;48.01
33414;BME280;60055;41.884;12.534;2023-05-11T12:13:27;100516.22;;;22.95;47.89
33414;BME280;60055;41.884;12.534;2023-05-11T12:16:14;100512.22;;;22.99;47.97
33414;BME280;60055;41.884;12.534;2023-05-11T12:18:40;100502.00;;;22.83;48.19
33414;BME280;60055;41.884;12.534;2023-05-11T12:21:18;100507.06;;;22.67;48.32
33414;BME280;60055;41.884;12.534;2023-05-11T12:23:56;100500.88;;;22.85;47.76
33414;BME280;60055;41.884;12.534;2023-05-11T12:26:23;100500.63;;;22.58;48.04
33414;BME280;60055;41.884;12.534;2023-05-11T12:28:50;100502.78;;;22.64;47.93
33414;BME280;60055;41.884;12.534;2023-05-11T12:31:18;100504.28;;;22.87;47.11
33414;BME280;60055;41.884;12.534;2023-05-11T12:33:47;100504.59;;;23.04;46.48
33414;BME280;60055;41.884;12.534;2023-05-11T12:36:16;100504.44;;;23.05;45.39
33414;BME280;60055;41.884;12.534;2023-05-11T12:38:47;100505.16;;;23.07;45.53
33414;BME280;60055;41.884;12.534;2023-05-11T12:41:18;100504.00;;;22.81;45.46
33414;BME280;60055;41.884;12.534;2023-05-11T12:43:45;100506.81;;;22.39;46.46
33414;BME280;60055;41.884;12.534;2023-05-11T12:46:10;100506.56;;;22.52;46.34
33414;BME280;60055;41.884;12.534;2023-05-11T12:48:37;100506.69;;;22.81;45.64
33414;BME280;60055;41.884;12.534;2023-05-11T12:51:03;100501.16;;;22.92;45.47
33414;BME280;60055;41.884;12.534;2023-05-11T12:53:34;100503.16;;;23.09;45.18
33414;BME280;60055;41.884;12.534;2023-05-11T12:56:00;100511.63;;;22.76;45.66
33414;BME280;60055;41.884;12.534;2023-05-11T12:58:34;100511.28;;;22.60;45.87
33414;BME280;60055;41.884;12.534;2023-05-11T13:01:00;100518.44;;;22.80;45.55
33414;BME280;60055;41.884;12.534;2023-05-11T13:03:28;100511.50;;;22.77;45.63
33414;BME280;60055;41.884;12.534;2023-05-11T13:06:08;100525.84;;;22.87;44.66
33414;BME280;60055;41.884;12.534;2023-05-11T13:08:44;100526.72;;;23.17;44.78
33414;BME280;60055;41.884;12.534;2023-05-11T13:13:41;100524.09;;;22.77;44.58
33414;BME280;60055;41.884;12.534;2023-05-11T13:16:07;100524.53;;;22.82;44.64
33414;BME280;60055;41.884;12.534;2023-05-11T13:18:32;100532.94;;;22.98;44.24
33414;BME280;60055;41.884;12.534;2023-05-11T13:21:07;100524.75;;;23.28;43.44
33414;BME280;60055;41.884;12.534;2023-05-11T13:23:33;100532.09;;;23.36;43.99
33414;BME280;60055;41.884;12.534;2023-05-11T13:26:00;100531.97;;;23.18;43.79
33414;BME280;60055;41.884;12.534;2023-05-11T13:28:25;100539.53;;;23.44;42.70
33414;BME280;60055;41.884;12.534;2023-05-11T13:30:57;100538.34;;;23.27;41.81